createdAt,value
2023-04-12T00:01:27.679Z,5.78
2023-04-12T00:03:55.663Z,6.90
2023-04-12T00:06:32.692Z,7.40
2023-04-12T00:09:01.357Z,6.97
2023-04-12T00:11:29.067Z,7.28
2023-04-12T00:13:56.537Z,6.22
2023-04-12T00:16:24.702Z,8.23
2023-04-12T00:18:52.148Z,7.65
2023-04-12T00:21:19.717Z,7.20
2023-04-12T00:23:47.564Z,7.30
2023-04-12T00:26:15.649Z,6.18
2023-04-12T00:28:43.238Z,7.65
2023-04-12T00:31:12.709Z,8.48
2023-04-12T00:33:40.137Z,6.90
2023-04-12T00:36:08.105Z,7.87
2023-04-12T00:38:36.593Z,7.25
2023-04-12T00:41:04.468Z,6.82
2023-04-12T00:43:31.842Z,7.30
2023-04-12T00:45:59.971Z,7.95
2023-04-12T00:48:27.588Z,6.07
2023-04-12T00:50:57.923Z,8.23
2023-04-12T00:53:25.687Z,8.35
2023-04-12T00:55:54.573Z,8.07
2023-04-12T00:58:24.411Z,10.10
2023-04-12T01:00:53.047Z,7.97
2023-04-12T01:03:24.347Z,7.30
2023-04-12T01:06:14.319Z,7.62
2023-04-12T01:09:04.842Z,7.47
2023-04-12T01:11:33.491Z,6.12
2023-04-12T01:14:22.078Z,6.68
2023-04-12T01:16:51.356Z,7.93
2023-04-12T01:19:31.619Z,6.97
2023-04-12T01:22:13.525Z,8.57
2023-04-12T01:24:55.966Z,6.90
2023-04-12T01:27:45.711Z,8.45
2023-04-12T01:30:15.941Z,7.95
2023-04-12T01:32:51.227Z,6.82
2023-04-12T01:35:21.523Z,9.30
2023-04-12T01:37:49.448Z,8.50
2023-04-12T01:40:18.697Z,8.55
2023-04-12T01:42:46.271Z,10.65
2023-04-12T01:45:14.471Z,9.15
2023-04-12T01:47:42.786Z,8.45
2023-04-12T01:50:19.093Z,8.40
2023-04-12T01:53:11.808Z,7.55
2023-04-12T01:55:42.454Z,6.93
2023-04-12T01:58:11.804Z,9.23
2023-04-12T02:00:40.242Z,6.47
2023-04-12T02:03:08.933Z,9.27
2023-04-12T02:05:36.711Z,9.38
2023-04-12T02:08:04.755Z,8.32
2023-04-12T02:10:33.480Z,7.97
2023-04-12T02:13:01.692Z,9.30
2023-04-12T02:15:31.022Z,6.43
2023-04-12T02:18:00.523Z,6.93
2023-04-12T02:20:29.379Z,7.45
2023-04-12T02:22:57.040Z,7.97
2023-04-12T02:25:24.443Z,8.05
2023-04-12T02:27:52.095Z,8.68
2023-04-12T02:30:20.373Z,9.63
2023-04-12T02:32:48.635Z,7.50
2023-04-12T02:35:17.770Z,8.75
2023-04-12T02:37:47.010Z,9.35
2023-04-12T02:40:15.640Z,9.98
2023-04-12T02:42:44.346Z,10.48
2023-04-12T02:45:12.210Z,10.23
2023-04-12T02:47:40.966Z,8.95
2023-04-12T02:50:09.113Z,9.13
2023-04-12T02:52:38.166Z,10.65
2023-04-12T02:55:06.401Z,10.65
2023-04-12T02:57:34.123Z,9.13
2023-04-12T03:00:02.131Z,11.00
2023-04-12T03:02:31.136Z,10.55
2023-04-12T03:04:59.192Z,8.23
2023-04-12T03:07:27.889Z,8.48
2023-04-12T03:09:55.475Z,10.90
2023-04-12T03:12:23.596Z,10.52
2023-04-12T03:14:51.655Z,9.40
2023-04-12T03:17:19.279Z,9.75
2023-04-12T03:19:49.380Z,9.27
2023-04-12T03:22:17.014Z,9.45
2023-04-12T03:24:46.521Z,11.12
2023-04-12T03:27:15.358Z,8.48
2023-04-12T03:29:42.800Z,11.12
2023-04-12T03:32:10.920Z,8.45
2023-04-12T03:34:39.540Z,10.73
2023-04-12T03:37:07.486Z,9.40
2023-04-12T03:39:35.893Z,8.73
2023-04-12T03:42:03.971Z,10.20
2023-04-12T03:44:32.770Z,9.07
2023-04-12T03:47:00.651Z,12.45
2023-04-12T03:49:29.999Z,8.48
2023-04-12T03:51:58.569Z,11.15
2023-04-12T03:54:26.761Z,10.77
2023-04-12T03:56:54.970Z,10.45
2023-04-12T03:59:22.625Z,9.07
2023-04-12T04:01:50.535Z,9.20
2023-04-12T04:04:19.336Z,9.65
2023-04-12T04:06:47.372Z,9.27
2023-04-12T04:09:15.600Z,9.43
2023-04-12T04:11:43.662Z,13.32
2023-04-12T04:14:11.368Z,9.82
2023-04-12T04:16:38.968Z,10.70
2023-04-12T04:19:12.715Z,12.02
2023-04-12T04:21:42.941Z,10.60
2023-04-12T04:24:11.543Z,11.65
2023-04-12T04:26:39.447Z,9.98
2023-04-12T04:29:09.526Z,10.45
2023-04-12T04:31:37.807Z,8.57
2023-04-12T04:34:06.226Z,11.85
2023-04-12T04:36:36.950Z,8.82
2023-04-12T04:39:05.379Z,10.20
2023-04-12T04:41:39.426Z,9.88
2023-04-12T04:44:09.468Z,8.70
2023-04-12T04:46:38.143Z,8.73
2023-04-12T04:49:06.279Z,8.18
2023-04-12T04:51:34.218Z,8.13
2023-04-12T04:54:02.664Z,8.45
2023-04-12T04:56:30.149Z,8.00
2023-04-12T04:58:57.798Z,8.15
2023-04-12T05:01:28.380Z,7.87
2023-04-12T05:03:56.574Z,8.05
2023-04-12T05:06:27.359Z,7.90
2023-04-12T05:08:55.502Z,10.93
2023-04-12T05:11:23.358Z,8.50
2023-04-12T05:13:51.377Z,8.18
2023-04-12T05:16:18.812Z,11.45
2023-04-12T05:18:47.401Z,8.38
2023-04-12T05:21:15.213Z,7.32
2023-04-12T05:23:46.059Z,7.00
2023-04-12T05:26:15.122Z,7.35
2023-04-12T05:28:44.651Z,8.07
2023-04-12T05:31:12.222Z,8.73
2023-04-12T05:33:39.718Z,7.68
2023-04-12T05:36:13.515Z,8.23
2023-04-12T05:38:41.995Z,9.35
2023-04-12T05:41:10.862Z,10.30
2023-04-12T05:43:38.503Z,7.93
2023-04-12T05:46:08.003Z,8.48
2023-04-12T05:48:36.183Z,7.37
2023-04-12T05:51:05.387Z,8.25
2023-04-12T05:53:33.088Z,9.38
2023-04-12T05:56:01.188Z,7.25
2023-04-12T05:58:28.971Z,9.45
2023-04-12T06:00:56.378Z,9.88
2023-04-12T06:03:24.371Z,8.82
2023-04-12T06:05:52.988Z,9.15
2023-04-12T06:08:20.426Z,8.88
2023-04-12T06:10:48.250Z,7.60
2023-04-12T06:13:15.655Z,8.10
2023-04-12T06:15:43.592Z,10.02
2023-04-12T06:18:13.012Z,10.65
2023-04-12T06:20:40.754Z,9.55
2023-04-12T06:23:08.246Z,9.38
2023-04-12T06:25:35.935Z,8.63
2023-04-12T06:28:04.188Z,8.40
2023-04-12T06:30:32.394Z,10.40
2023-04-12T06:33:00.065Z,8.88
2023-04-12T06:35:27.463Z,9.52
2023-04-12T06:37:54.888Z,8.52
2023-04-12T06:40:22.546Z,9.00
2023-04-12T06:42:49.962Z,7.18
2023-04-12T06:45:21.759Z,8.52
2023-04-12T06:47:49.460Z,8.40
2023-04-12T06:50:18.497Z,9.05
2023-04-12T07:08:00.689Z,8.65
2023-04-12T07:10:28.596Z,8.40
2023-04-12T07:12:57.057Z,7.97
2023-04-12T07:15:24.360Z,12.77
2023-04-12T07:17:52.095Z,13.38
2023-04-12T07:20:19.512Z,7.53
2023-04-12T07:22:47.210Z,7.32
2023-04-12T07:25:14.945Z,9.85
2023-04-12T07:27:42.395Z,7.53
2023-04-12T07:30:10.333Z,8.32
2023-04-12T07:32:38.077Z,6.32
2023-04-12T07:35:05.986Z,8.77
2023-04-12T07:37:33.376Z,7.03
2023-04-12T07:40:01.881Z,6.35
2023-04-12T07:42:29.281Z,9.48
2023-04-12T07:44:56.695Z,6.55
2023-04-12T07:47:24.347Z,9.43
2023-04-12T07:49:51.709Z,9.32
2023-04-12T07:52:19.095Z,6.30
2023-04-12T07:54:46.813Z,7.10
2023-04-12T07:57:14.182Z,9.48
2023-04-12T07:59:41.529Z,6.20
2023-04-12T08:02:09.293Z,6.68
2023-04-12T08:04:38.220Z,8.27
2023-04-12T08:07:05.830Z,7.57
2023-04-12T08:09:33.441Z,7.65
2023-04-12T08:12:01.705Z,7.40
2023-04-12T08:14:29.106Z,6.35
2023-04-12T08:16:56.454Z,6.50
2023-04-12T08:19:24.389Z,6.68
2023-04-12T08:21:51.794Z,7.25
2023-04-12T08:24:20.075Z,7.18
2023-04-12T08:26:47.699Z,5.62
2023-04-12T08:29:15.087Z,8.43
2023-04-12T08:31:42.591Z,6.53
2023-04-12T08:34:12.272Z,6.65
2023-04-12T08:36:39.654Z,7.07
2023-04-12T08:39:07.030Z,6.00
2023-04-12T08:41:37.004Z,4.82
2023-04-12T08:44:05.695Z,5.37
2023-04-12T08:46:36.393Z,5.20
2023-04-12T08:49:04.049Z,6.12
2023-04-12T08:51:32.842Z,4.22
2023-04-12T08:54:00.587Z,4.70
2023-04-12T08:56:29.914Z,4.95
2023-04-12T08:58:57.719Z,5.20
2023-04-12T09:01:25.160Z,4.78
2023-04-12T09:03:53.134Z,4.82
2023-04-12T09:06:20.750Z,5.53
2023-04-12T09:08:55.151Z,5.05
2023-04-12T09:11:29.553Z,5.07
2023-04-12T09:13:58.642Z,7.97
2023-04-12T09:16:40.738Z,4.97
2023-04-12T09:19:08.934Z,5.57
2023-04-12T09:21:37.056Z,5.93
2023-04-12T09:24:14.858Z,7.97
2023-04-12T09:26:42.742Z,5.97
2023-04-12T09:29:26.795Z,5.43
2023-04-12T09:32:02.842Z,5.60
2023-04-12T09:36:58.853Z,5.18
2023-04-12T09:39:35.867Z,3.15
2023-04-12T09:42:29.922Z,5.37
2023-04-12T09:45:01.828Z,4.72
2023-04-12T09:47:40.292Z,4.30
2023-04-12T09:50:09.813Z,5.03
2023-04-12T09:52:39.213Z,5.47
2023-04-12T09:55:09.889Z,4.65
2023-04-12T09:57:42.224Z,4.25
2023-04-12T10:00:14.227Z,4.55
2023-04-12T10:02:44.434Z,4.22
2023-04-12T10:05:15.280Z,4.03
2023-04-12T10:07:44.007Z,3.87
2023-04-12T10:10:16.657Z,6.00
2023-04-12T10:12:48.220Z,5.47
2023-04-12T10:15:21.816Z,5.65
2023-04-12T10:17:54.773Z,2.95
2023-04-12T10:20:24.836Z,3.22
2023-04-12T10:22:54.955Z,3.92
2023-04-12T10:25:24.093Z,5.10
2023-04-12T10:27:51.725Z,3.22
2023-04-12T10:30:27.645Z,5.95
2023-04-12T10:33:04.416Z,3.10
2023-04-12T10:36:02.747Z,4.95
2023-04-12T10:38:37.281Z,6.75
2023-04-12T10:41:11.985Z,3.92
2023-04-12T10:43:43.628Z,3.42
2023-04-12T10:46:40.046Z,3.80
2023-04-12T10:49:09.543Z,5.68
2023-04-12T10:51:37.563Z,4.68
2023-04-12T10:54:08.063Z,5.57
2023-04-12T10:56:40.596Z,5.20
2023-04-12T10:59:14.161Z,3.22
2023-04-12T11:01:43.008Z,4.82
2023-04-12T11:04:18.980Z,2.90
2023-04-12T11:06:51.866Z,5.18
2023-04-12T11:09:46.985Z,7.20
2023-04-12T11:12:16.205Z,6.03
2023-04-12T11:14:49.379Z,6.72
2023-04-12T11:17:17.285Z,7.18
2023-04-12T11:19:52.806Z,6.78
2023-04-12T11:22:22.701Z,6.90
2023-04-12T11:24:52.913Z,4.03
2023-04-12T11:27:21.854Z,5.07
2023-04-12T11:29:51.608Z,4.32
2023-04-12T11:32:22.036Z,6.80
2023-04-12T11:34:49.897Z,4.05
2023-04-12T11:37:19.138Z,3.45
2023-04-12T11:39:47.379Z,6.70
2023-04-12T11:42:20.085Z,6.20
2023-04-12T11:44:57.685Z,4.70
2023-04-12T11:47:28.201Z,4.75
2023-04-12T11:49:57.454Z,5.78
2023-04-12T11:52:32.744Z,8.88
2023-04-12T11:55:06.776Z,7.20
2023-04-12T11:57:34.763Z,11.27
2023-04-12T12:00:06.763Z,7.82
2023-04-12T12:02:48.898Z,4.50
2023-04-12T12:05:21.070Z,7.18
2023-04-12T12:07:48.894Z,6.28
2023-04-12T12:10:32.511Z,4.70
2023-04-12T12:13:14.494Z,5.20
2023-04-12T12:15:45.687Z,8.32
2023-04-12T12:18:13.384Z,5.05
2023-04-12T12:20:50.890Z,4.97
2023-04-12T12:23:31.473Z,3.45
2023-04-12T12:26:17.682Z,5.22
2023-04-12T12:28:53.555Z,4.57
2023-04-12T12:31:23.145Z,5.07
2023-04-12T12:33:56.835Z,6.28
2023-04-12T12:36:35.967Z,7.70
2023-04-12T12:39:11.797Z,4.20
2023-04-12T12:41:40.329Z,4.78
2023-04-12T12:44:08.452Z,3.78
2023-04-12T12:49:06.359Z,5.93
2023-04-12T12:51:34.006Z,3.28
2023-04-12T12:54:01.363Z,7.40
2023-04-12T12:56:28.755Z,3.78
2023-04-12T12:58:56.614Z,4.87
2023-04-12T13:01:24.165Z,4.47
2023-04-12T13:03:51.905Z,5.15
2023-04-12T13:06:19.913Z,5.82
2023-04-12T13:08:47.299Z,5.00
2023-04-12T13:11:16.434Z,5.18
2023-04-12T13:13:44.786Z,5.35
2023-04-12T13:16:12.311Z,3.83
2023-04-12T13:18:39.949Z,4.62
2023-04-12T13:21:07.929Z,4.85
2023-04-12T13:23:35.838Z,4.90
2023-04-12T13:26:03.248Z,5.30
2023-04-12T13:28:30.901Z,8.27
2023-04-12T13:30:59.329Z,4.78
2023-04-12T13:33:27.093Z,5.78
2023-04-12T13:35:55.254Z,7.87
2023-04-12T13:38:22.707Z,4.18
2023-04-12T13:40:50.154Z,3.37
2023-04-12T13:43:17.812Z,5.78
2023-04-12T13:45:45.356Z,6.47
2023-04-12T13:48:12.851Z,10.43
2023-04-12T13:50:40.844Z,4.80
2023-04-12T13:53:08.236Z,6.40
2023-04-12T13:55:35.940Z,4.80
2023-04-12T13:58:03.562Z,4.57
2023-04-12T14:00:30.969Z,4.15
2023-04-12T14:02:58.741Z,5.22
2023-04-12T14:05:26.365Z,6.12
2023-04-12T14:07:55.637Z,5.53
2023-04-12T14:10:23.289Z,3.58
2023-04-12T14:12:50.685Z,4.53
2023-04-12T14:15:18.050Z,5.50
2023-04-12T14:17:46.261Z,5.18
2023-04-12T14:20:14.098Z,5.45
2023-04-12T14:22:41.689Z,4.07
2023-04-12T14:25:10.220Z,7.65
2023-04-12T14:27:37.960Z,5.62
2023-04-12T14:30:07.910Z,8.02
2023-04-12T14:32:37.314Z,5.85
2023-04-12T14:35:05.260Z,4.85
2023-04-12T14:37:33.195Z,4.12
2023-04-12T14:40:01.164Z,3.97
2023-04-12T14:42:28.584Z,3.65
2023-04-12T14:44:56.220Z,5.90
2023-04-12T14:47:24.165Z,4.57
2023-04-12T14:49:51.565Z,3.58
2023-04-12T14:52:19.022Z,2.75
2023-04-12T14:54:46.701Z,5.75
2023-04-12T14:57:15.524Z,4.97
2023-04-12T14:59:42.991Z,3.83
2023-04-12T15:02:10.757Z,6.50
2023-04-12T15:04:38.323Z,3.80
2023-04-12T15:07:24.571Z,4.93
2023-04-12T15:09:52.184Z,3.90
2023-04-12T15:12:19.596Z,6.15
2023-04-12T15:14:47.308Z,4.53
2023-04-12T15:17:15.148Z,5.97
2023-04-12T15:19:42.589Z,4.78
2023-04-12T15:22:09.989Z,5.00
2023-04-12T15:24:37.623Z,3.58
2023-04-12T15:27:06.578Z,4.93
2023-04-12T15:29:34.701Z,5.12
2023-04-12T15:32:02.515Z,5.37
2023-04-12T15:34:30.106Z,6.07
2023-04-12T15:36:58.138Z,4.22
2023-04-12T15:39:26.829Z,5.00
2023-04-12T15:41:54.267Z,6.43
2023-04-12T15:44:25.505Z,5.12
2023-04-12T15:47:07.874Z,5.62
2023-04-12T15:49:41.626Z,4.82
2023-04-12T15:52:09.371Z,6.45
2023-04-12T15:54:43.746Z,4.97
2023-04-12T15:57:11.978Z,5.45
2023-04-12T15:59:40.642Z,4.80
2023-04-12T16:02:09.782Z,5.12
2023-04-12T16:04:42.240Z,4.82
2023-04-12T16:07:10.878Z,7.10
2023-04-12T16:09:39.827Z,7.82
2023-04-12T16:12:08.083Z,6.50
2023-04-12T16:14:36.789Z,7.37
2023-04-12T16:17:04.696Z,6.40
2023-04-12T16:19:32.365Z,7.35
2023-04-12T16:22:01.845Z,5.03
2023-04-12T16:24:29.767Z,5.00
2023-04-12T16:26:57.543Z,5.43
2023-04-12T16:29:25.138Z,5.68
2023-04-12T16:31:53.155Z,5.97
2023-04-12T16:34:22.297Z,5.40
2023-04-12T16:36:49.863Z,6.87
2023-04-12T16:39:17.807Z,4.47
2023-04-12T16:41:46.995Z,5.90
2023-04-12T16:44:18.777Z,5.03
2023-04-12T16:46:49.023Z,5.65
2023-04-12T16:49:19.545Z,4.03
2023-04-12T16:51:50.282Z,7.90
2023-04-12T16:54:18.147Z,5.62
2023-04-12T16:56:47.919Z,6.32
2023-04-12T16:59:20.423Z,7.87
2023-04-12T17:01:48.603Z,6.10
2023-04-12T17:04:16.894Z,5.40
2023-04-12T17:06:45.127Z,5.20
2023-04-12T17:09:13.265Z,5.32
2023-04-12T17:11:42.413Z,7.22
2023-04-12T17:14:10.124Z,13.65
2023-04-12T17:16:37.883Z,8.18
2023-04-12T17:19:06.355Z,7.07
2023-04-12T17:21:43.650Z,7.40
2023-04-12T17:24:15.653Z,6.65
2023-04-12T17:26:43.593Z,8.65
2023-04-12T17:29:16.278Z,7.78
2023-04-12T17:31:45.761Z,5.93
2023-04-12T17:34:14.603Z,8.85
2023-04-12T17:36:42.920Z,6.97
2023-04-12T17:39:13.123Z,6.40
2023-04-12T17:41:41.540Z,7.12
2023-04-12T17:44:09.776Z,7.20
2023-04-12T17:46:38.550Z,9.27
2023-04-12T17:49:06.726Z,7.87
2023-04-12T17:57:42.260Z,7.78
2023-04-12T18:00:12.207Z,8.00
2023-04-12T18:02:41.389Z,9.43
2023-04-12T18:05:10.814Z,8.13
2023-04-12T18:07:42.658Z,7.37
2023-04-12T18:10:13.044Z,8.70
2023-04-12T18:12:43.293Z,7.45
2023-04-12T18:15:12.401Z,8.82
2023-04-12T18:17:41.056Z,6.47
2023-04-12T18:20:10.776Z,8.40
2023-04-12T18:22:40.095Z,7.97
2023-04-12T18:25:08.911Z,7.93
2023-04-12T18:27:39.397Z,9.30
2023-04-12T18:30:08.776Z,9.32
2023-04-12T18:32:38.053Z,7.50
2023-04-12T18:35:07.354Z,10.32
2023-04-12T18:37:37.404Z,7.90
2023-04-12T18:40:09.513Z,23.17
2023-04-12T18:42:38.620Z,8.57
2023-04-12T18:45:07.138Z,8.77
2023-04-12T18:47:37.318Z,9.60
2023-04-12T18:50:07.678Z,7.65
2023-04-12T18:52:35.800Z,9.05
2023-04-12T18:55:04.462Z,13.65
2023-04-12T18:57:33.368Z,7.70
2023-04-12T19:00:01.619Z,7.90
2023-04-12T19:02:29.746Z,11.27
2023-04-12T19:04:59.645Z,7.53
2023-04-12T19:07:27.873Z,8.32
2023-04-12T19:09:55.428Z,8.98
2023-04-12T19:12:23.818Z,9.07
2023-04-12T19:14:52.638Z,10.32
2023-04-12T19:17:28.195Z,7.43
2023-04-12T19:19:58.109Z,8.10
2023-04-12T19:22:28.508Z,13.27
2023-04-12T19:24:56.982Z,8.85
2023-04-12T19:27:25.582Z,7.70
2023-04-12T19:29:54.523Z,8.73
2023-04-12T19:32:24.009Z,7.00
2023-04-12T19:34:52.735Z,9.20
2023-04-12T19:37:23.026Z,7.10
2023-04-12T19:39:51.988Z,8.25
2023-04-12T19:42:20.975Z,8.18
2023-04-12T19:44:52.997Z,11.93
2023-04-12T19:47:22.555Z,9.02
2023-04-12T19:49:50.691Z,11.52
2023-04-12T19:52:22.361Z,13.05
2023-04-12T19:54:54.002Z,10.68
2023-04-12T19:57:24.425Z,10.82
2023-04-12T19:59:53.142Z,10.13
2023-04-12T20:02:21.905Z,10.05
2023-04-12T20:04:50.716Z,10.48
2023-04-12T20:07:19.608Z,13.15
2023-04-12T20:09:47.797Z,11.90
2023-04-12T20:12:17.365Z,9.57
2023-04-12T20:14:46.018Z,11.50
2023-04-12T20:17:14.718Z,11.15
2023-04-12T20:19:44.046Z,9.65
2023-04-12T20:22:12.734Z,10.30
2023-04-12T20:24:43.257Z,9.35
2023-04-12T20:27:17.949Z,8.27
2023-04-12T20:29:46.787Z,11.20
2023-04-12T20:32:16.133Z,12.50
2023-04-12T20:34:48.564Z,11.10
2023-04-12T20:37:18.028Z,10.23
2023-04-12T20:39:45.983Z,12.95
2023-04-12T20:42:18.954Z,13.32
2023-04-12T20:44:48.507Z,11.30
2023-04-12T20:47:16.299Z,9.75
2023-04-12T20:49:46.660Z,9.30
2023-04-12T20:52:19.128Z,14.43
2023-04-12T20:54:48.468Z,12.80
2023-04-12T20:57:20.168Z,9.80
2023-04-12T20:59:48.514Z,11.05
2023-04-12T21:02:16.625Z,14.30
2023-04-12T21:04:45.197Z,11.52
2023-04-12T21:07:12.985Z,11.02
2023-04-12T21:09:40.724Z,13.57
2023-04-12T21:12:08.515Z,10.95
2023-04-12T21:14:37.785Z,12.43
2023-04-12T21:17:07.233Z,12.63
2023-04-12T21:19:41.041Z,11.45
2023-04-12T21:22:08.789Z,10.32
2023-04-12T21:24:38.610Z,9.10
2023-04-12T21:27:09.230Z,10.52
2023-04-12T21:29:41.217Z,9.75
2023-04-12T21:32:09.739Z,12.15
2023-04-12T21:34:37.645Z,11.23
2023-04-12T21:37:05.465Z,16.90
2023-04-12T21:39:33.400Z,14.27
2023-04-12T21:42:01.721Z,15.00
2023-04-12T21:44:30.871Z,16.92
2023-04-12T21:46:58.359Z,15.95
2023-04-12T21:49:26.865Z,17.15
2023-04-12T21:51:57.026Z,20.08
2023-04-12T21:54:24.546Z,21.48
2023-04-12T21:56:52.293Z,20.40
2023-04-12T21:59:19.659Z,18.27
2023-04-12T22:01:47.037Z,19.83
2023-04-12T22:04:15.394Z,18.40
2023-04-12T22:06:44.655Z,19.58
2023-04-12T22:09:12.474Z,21.40
2023-04-12T22:11:40.135Z,17.30
2023-04-12T22:14:07.827Z,18.90
2023-04-12T22:16:35.562Z,21.80
2023-04-12T22:19:03.364Z,18.25
2023-04-12T22:21:30.991Z,19.45
2023-04-12T22:23:58.888Z,16.80
2023-04-12T22:26:26.723Z,18.52
2023-04-12T22:28:54.282Z,15.15
2023-04-12T22:31:22.962Z,15.27
2023-04-12T22:33:54.999Z,13.60
2023-04-12T22:36:28.499Z,16.25
2023-04-12T22:38:57.038Z,13.55
2023-04-12T22:41:28.299Z,16.08
2023-04-12T22:44:02.946Z,14.13
2023-04-12T22:46:33.677Z,15.65
2023-04-12T22:49:01.163Z,17.48
2023-04-12T22:51:28.565Z,16.33
2023-04-12T22:53:56.889Z,12.35
2023-04-12T22:56:25.456Z,14.90
2023-04-12T22:58:53.765Z,13.88
2023-04-12T23:01:21.696Z,14.30
2023-04-12T23:03:50.113Z,13.27
2023-04-12T23:06:19.665Z,13.68
2023-04-12T23:08:49.630Z,17.92
2023-04-12T23:11:17.193Z,12.80
2023-04-12T23:13:44.597Z,13.55
2023-04-12T23:16:12.356Z,14.43
2023-04-12T23:18:39.798Z,12.75
2023-04-12T23:21:11.087Z,12.05
2023-04-12T23:23:38.760Z,14.35
2023-04-12T23:26:06.312Z,14.18
2023-04-12T23:28:34.308Z,9.70
2023-04-12T23:31:02.086Z,11.90
2023-04-12T23:33:29.484Z,12.85
2023-04-12T23:35:57.096Z,12.32
2023-04-12T23:38:32.116Z,14.23
2023-04-12T23:41:05.833Z,11.25
2023-04-12T23:43:34.581Z,9.55
2023-04-12T23:46:03.185Z,12.30
2023-04-12T23:48:32.325Z,11.00
2023-04-12T23:51:00.331Z,9.90
2023-04-12T23:53:27.785Z,9.35
2023-04-12T23:55:55.156Z,11.65
2023-04-12T23:58:22.874Z,10.05
